EDW399Y EDDS-LSGG
Flight info
| Callsign | EDW399Y |
|---|---|
| Flight time | N/A |
| Altitude | 29000 |
| Route | ROTWE1K ROTWE Y126 TUBLO N850 NATOR DCT LUTIX/N0456F310 DCT BENOT |
| Aircraft | A359/H-SDE2E3GHIJ3J4J5LM1ORWXY/LB1D1 |
Departure
| Time | 2026-04-30 20:40 |
|---|---|
| Airport | Stuttgart Airport (EDDS) |
Arrival
| Time | N/A |
|---|---|
| Airport | Geneva International Airport (LSGG) |
| Time | Latitude | Longitude | Altitude | Speed | Heading |
|---|---|---|---|---|---|
| 2026-04-30 20:18 | 48.68925 | 9.19653 | 1292 ft | 0 kts | 344° |
| 2026-04-30 20:27 | 48.68918 | 9.19656 | 1292 ft | 0 kts | 350° |
| 2026-04-30 20:29 | 48.68901 | 9.19659 | 1292 ft | 3 kts | 7° |
| 2026-04-30 20:30 | 48.68855 | 9.19617 | 1292 ft | 0 kts | 81° |
| 2026-04-30 20:32 | 48.68858 | 9.19640 | 1292 ft | 2 kts | 79° |
| 2026-04-30 20:33 | 48.68864 | 9.19679 | 1292 ft | 9 kts | 75° |
| 2026-04-30 20:33 | 48.68878 | 9.19795 | 1292 ft | 1 kts | 100° |
| 2026-04-30 20:33 | 48.68873 | 9.19805 | 1292 ft | 0 kts | 124° |
| 2026-04-30 20:34 | 48.68823 | 9.19905 | 1292 ft | 12 kts | 131° |
| 2026-04-30 20:34 | 48.68781 | 9.19946 | 1292 ft | 0 kts | 165° |
| 2026-04-30 20:35 | 48.68739 | 9.19964 | 1292 ft | 0 kts | 164° |
| 2026-04-30 20:37 | 48.68715 | 9.19974 | 1292 ft | 10 kts | 164° |
| 2026-04-30 20:37 | 48.68674 | 9.19991 | 1292 ft | 0 kts | 164° |
| 2026-04-30 20:38 | 48.68635 | 9.20019 | 1292 ft | 13 kts | 146° |
| 2026-04-30 20:39 | 48.68614 | 9.20227 | 1292 ft | 0 kts | 74° |
| 2026-04-30 20:40 | 48.68829 | 9.21365 | 1292 ft | 125 kts | 74° |
| 2026-04-30 20:40 | 48.69118 | 9.22882 | 1507 ft | 162 kts | 75° |
| 2026-04-30 20:40 | 48.69417 | 9.24512 | 2416 ft | 158 kts | 76° |
| 2026-04-30 20:41 | 48.70118 | 9.28163 | 3188 ft | 202 kts | 78° |
| 2026-04-30 20:41 | 48.70510 | 9.30242 | 3874 ft | 207 kts | 78° |
| 2026-04-30 20:41 | 48.70871 | 9.32369 | 4514 ft | 213 kts | 83° |
| 2026-04-30 20:41 | 48.70756 | 9.34619 | 4925 ft | 219 kts | 109° |
| 2026-04-30 20:42 | 48.70000 | 9.36621 | 4988 ft | 223 kts | 129° |
| 2026-04-30 20:42 | 48.68724 | 9.38008 | 5181 ft | 234 kts | 154° |
| 2026-04-30 20:42 | 48.65437 | 9.37604 | 6445 ft | 258 kts | 207° |
| 2026-04-30 20:43 | 48.64152 | 9.35688 | 7056 ft | 268 kts | 237° |
| 2026-04-30 20:43 | 48.63375 | 9.33026 | 7431 ft | 284 kts | 250° |